Time;durP1;ratioP1;P1;durP2;ratioP2;P2;SDS_P1;SDS_P2;PMS_P1;PMS_P2;Temp;Humidity;BMP_temperature;BMP_pressure;BME280_temperature;BME280_humidity;BME280_pressure;Samples;Min_cycle;Max_cycle;Signal;HPM_P1;HPM_P2
2023/11/14 00:00:59;;;;;;;;;0.33;0.00;;;;;22.38;47.21;100764.94;4958851;28;45439;-73
2023/11/14 00:03:28;;;;;;;;;3.00;2.00;;;;;22.50;47.01;100794.47;4958913;28;45375;-73
2023/11/14 00:05:54;;;;;;;;;3.00;1.00;;;;;22.50;46.87;100807.72;4958900;28;45473;-73
2023/11/14 00:08:19;;;;;;;;;1.67;0.67;;;;;22.51;47.27;100803.22;4958777;28;45315;-73
2023/11/14 00:10:46;;;;;;;;;2.33;1.00;;;;;22.49;46.70;100802.56;4957625;28;45392;-73
2023/11/14 00:13:11;;;;;;;;;3.67;1.00;;;;;22.48;47.06;100808.91;4958898;28;46191;-73
2023/11/14 00:15:37;;;;;;;;;2.33;2.00;;;;;22.49;46.76;100811.34;4958781;28;45503;-73
2023/11/14 00:18:03;;;;;;;;;1.67;0.67;;;;;22.49;47.16;100827.25;4958533;28;45382;-73
2023/11/14 00:20:28;;;;;;;;;1.00;1.00;;;;;22.32;46.78;100799.31;4957934;28;45292;-73
2023/11/14 00:22:53;;;;;;;;;0.00;0.00;;;;;22.45;46.54;100831.31;4957401;28;48291;-73
2023/11/14 00:25:19;;;;;;;;;4.00;0.00;;;;;22.49;47.04;100855.59;4958119;28;58149;-73
2023/11/14 00:27:44;;;;;;;;;4.33;1.67;;;;;22.48;46.85;100856.63;4958628;28;45377;-73
2023/11/14 00:30:10;;;;;;;;;4.00;2.00;;;;;22.48;46.48;100860.06;4958685;28;45342;-73
2023/11/14 00:32:35;;;;;;;;;4.33;2.00;;;;;22.37;46.55;100823.44;4958129;28;45987;-73
2023/11/14 00:35:00;;;;;;;;;7.00;2.33;;;;;22.48;46.96;100840.72;4958480;28;45433;-74
2023/11/14 00:37:26;;;;;;;;;1.33;0.67;;;;;22.48;46.96;100832.75;4958680;28;45398;-73
2023/11/14 00:39:51;;;;;;;;;6.67;2.00;;;;;22.27;46.80;100794.56;4958575;28;45409;-73
2023/11/14 00:42:16;;;;;;;;;1.00;1.00;;;;;22.44;46.97;100839.41;4958161;28;56473;-73
2023/11/14 00:44:42;;;;;;;;;3.00;1.00;;;;;22.35;46.60;100818.31;4958412;28;45376;-73
2023/11/14 00:47:08;;;;;;;;;1.67;1.67;;;;;22.41;46.70;100840.59;4958091;28;45568;-73
2023/11/14 00:49:33;;;;;;;;;5.00;4.00;;;;;22.43;46.44;100848.41;4958523;28;45338;-73
2023/11/14 00:51:58;;;;;;;;;3.00;2.00;;;;;22.41;46.77;100845.91;4958024;28;46181;-73
2023/11/14 00:54:24;;;;;;;;;3.67;2.00;;;;;22.43;46.51;100859.00;4958217;28;45449;-73
2023/11/14 00:56:50;;;;;;;;;0.00;0.00;;;;;22.43;46.56;100864.31;4958259;28;45405;-73
2023/11/14 00:59:16;;;;;;;;;3.00;1.00;;;;;22.39;46.69;100863.84;4956676;28;45318;-73
2023/11/14 01:01:42;;;;;;;;;3.00;2.00;;;;;22.45;46.68;100873.72;4957683;28;47376;-73
2023/11/14 01:04:10;;;;;;;;;3.00;2.00;;;;;22.36;46.49;100870.31;4958036;28;45410;-73
2023/11/14 01:06:35;;;;;;;;;2.67;1.00;;;;;22.44;46.93;100898.56;4958015;28;45405;-73
2023/11/14 01:09:00;;;;;;;;;2.00;2.00;;;;;22.41;46.32;100883.03;4958154;28;45422;-73
2023/11/14 01:11:26;;;;;;;;;2.00;0.67;;;;;22.43;46.69;100883.66;4956058;28;65123;-71
2023/11/14 01:13:51;;;;;;;;;2.00;1.00;;;;;22.37;46.64;100874.63;4957939;28;45356;-72
2023/11/14 01:16:17;;;;;;;;;2.00;1.00;;;;;22.35;46.68;100871.31;4957759;28;45265;-73
2023/11/14 01:18:42;;;;;;;;;1.00;1.00;;;;;22.39;46.78;100880.56;4957908;28;45441;-73
2023/11/14 01:21:08;;;;;;;;;5.00;1.00;;;;;22.31;46.29;100874.50;4957715;28;46069;-73
2023/11/14 01:23:33;;;;;;;;;1.33;1.00;;;;;22.42;46.51;100892.63;4957865;28;45493;-73
2023/11/14 01:26:00;;;;;;;;;2.00;2.00;;;;;22.43;46.56;100880.22;4957983;28;45545;-73
2023/11/14 01:28:25;;;;;;;;;2.00;1.00;;;;;22.35;46.14;100873.16;4957815;28;45498;-73
2023/11/14 01:30:50;;;;;;;;;0.33;0.00;;;;;22.40;46.03;100882.19;4957036;28;46321;-72
2023/11/14 01:33:16;;;;;;;;;1.00;1.00;;;;;22.37;46.23;100876.44;4957624;28;45544;-73
2023/11/14 01:35:41;;;;;;;;;2.00;2.00;;;;;22.36;46.63;100869.50;4957516;28;48126;-73
2023/11/14 01:38:06;;;;;;;;;3.67;1.33;;;;;22.45;46.22;100880.84;4957580;28;45604;-73
2023/11/14 01:40:32;;;;;;;;;2.67;1.67;;;;;22.42;46.22;100875.91;4957503;28;47088;-73
2023/11/14 01:43:02;;;;;;;;;2.00;2.00;;;;;22.45;46.12;100878.19;4957427;28;45389;-73
2023/11/14 01:45:27;;;;;;;;;0.33;0.33;;;;;22.44;46.36;100881.84;4957362;28;45366;-73
2023/11/14 01:47:53;;;;;;;;;1.00;1.00;;;;;22.38;46.08;100883.38;4957274;28;45377;-73
2023/11/14 01:50:19;;;;;;;;;0.00;0.00;;;;;22.34;46.13;100863.56;4957422;28;45370;-73
2023/11/14 01:52:44;;;;;;;;;1.67;1.00;;;;;22.44;46.53;100895.91;4957399;28;45291;-73
2023/11/14 01:55:11;;;;;;;;;2.00;2.00;;;;;22.45;46.02;100894.09;4957248;28;45408;-72
2023/11/14 01:57:36;;;;;;;;;0.00;0.00;;;;;22.44;45.89;100890.63;4957274;28;45295;-73
2023/11/14 02:00:02;;;;;;;;;0.33;0.33;;;;;22.45;46.51;100880.84;4956465;28;45425;-73
2023/11/14 02:02:28;;;;;;;;;1.67;0.67;;;;;22.45;46.07;100886.97;4957308;28;45307;-72
2023/11/14 02:04:55;;;;;;;;;0.00;0.00;;;;;22.43;46.62;100882.84;4957274;28;45290;-73
2023/11/14 02:07:21;;;;;;;;;1.00;1.00;;;;;22.43;46.50;100891.59;4957194;28;45454;-73
2023/11/14 02:09:47;;;;;;;;;2.33;1.00;;;;;22.43;45.93;100899.56;4957088;28;47342;-71
2023/11/14 02:12:13;;;;;;;;;2.00;1.00;;;;;22.43;46.54;100891.59;4957135;28;45390;-72
2023/11/14 02:14:38;;;;;;;;;1.67;1.67;;;;;22.36;45.85;100894.19;4956887;28;45887;-73
2023/11/14 02:17:03;;;;;;;;;0.67;0.67;;;;;22.40;45.87;100898.09;4957146;28;45406;-73
2023/11/14 02:19:29;;;;;;;;;1.33;1.00;;;;;22.41;46.32;100901.59;4956838;28;46102;-73
2023/11/14 02:21:55;;;;;;;;;1.00;1.00;;;;;22.40;46.50;100892.00;4956790;28;45374;-73
2023/11/14 02:24:21;;;;;;;;;1.67;1.33;;;;;22.39;46.11;100875.25;4957195;28;45441;-72
2023/11/14 02:26:48;;;;;;;;;2.00;2.00;;;;;22.40;46.07;100881.41;4956996;28;45489;-72
2023/11/14 02:29:20;;;;;;;;;3.00;2.00;;;;;22.40;46.44;100889.34;4956277;28;46142;-73
2023/11/14 02:31:46;;;;;;;;;2.00;2.00;;;;;22.34;46.14;100869.69;4956586;28;45405;-73
2023/11/14 02:34:11;;;;;;;;;1.33;1.33;;;;;22.37;45.92;100871.16;4957072;28;45441;-73
2023/11/14 02:36:37;;;;;;;;;1.33;1.00;;;;;22.39;46.16;100887.69;4956781;28;45360;-73
2023/11/14 02:39:04;;;;;;;;;2.00;1.00;;;;;22.39;46.50;100879.75;4956642;28;46093;-74
2023/11/14 02:41:29;;;;;;;;;2.00;1.00;;;;;22.27;45.93;100868.78;4956746;28;45295;-72
2023/11/14 02:43:56;;;;;;;;;0.33;0.00;;;;;21.95;45.95;100802.66;4958593;28;45422;-73
2023/11/14 02:46:22;;;;;;;;;0.33;0.33;;;;;22.39;46.54;100882.38;4960017;28;45394;-73
2023/11/14 02:48:47;;;;;;;;;1.00;1.00;;;;;22.28;46.36;100879.19;4959996;28;46256;-73
2023/11/14 02:51:13;;;;;;;;;1.33;1.33;;;;;22.37;45.93;100887.06;4960103;28;45488;-73
2023/11/14 02:53:38;;;;;;;;;1.00;1.00;;;;;22.38;46.19;100878.09;4960242;28;45394;-72
2023/11/14 02:56:04;;;;;;;;;0.00;0.00;;;;;22.34;46.38;100882.09;4959794;28;45497;-73
2023/11/14 02:58:29;;;;;;;;;1.00;1.00;;;;;22.35;46.37;100866.00;4959217;28;47240;-72
2023/11/14 03:00:55;;;;;;;;;1.00;1.00;;;;;22.38;46.18;100870.97;4959650;28;45489;-73
2023/11/14 03:03:20;;;;;;;;;0.33;0.33;;;;;22.37;46.44;100866.69;4960169;28;45421;-73
2023/11/14 03:05:46;;;;;;;;;0.00;0.00;;;;;22.31;46.45;100859.44;4959792;28;45499;-74
2023/11/14 03:08:12;;;;;;;;;2.00;1.00;;;;;22.38;46.49;100868.31;4959582;28;46230;-73
2023/11/14 03:10:39;;;;;;;;;0.00;0.00;;;;;22.36;46.27;100872.13;4959867;28;45462;-73
2023/11/14 03:13:06;;;;;;;;;2.33;1.00;;;;;22.37;46.38;100873.81;4959331;28;45421;-73
2023/11/14 03:15:32;;;;;;;;;3.00;1.00;;;;;22.31;46.23;100872.69;4959485;28;45238;-72
2023/11/14 03:18:01;;;;;;;;;2.00;1.00;;;;;22.38;45.91;100870.13;4959223;28;46287;-74
2023/11/14 03:20:27;;;;;;;;;2.00;1.00;;;;;22.29;46.24;100832.31;4959577;28;45527;-73
2023/11/14 03:22:53;;;;;;;;;0.67;0.67;;;;;22.38;46.15;100847.09;4959569;28;45385;-73
2023/11/14 03:25:18;;;;;;;;;2.00;1.00;;;;;22.38;46.03;100847.09;4959321;28;45338;-73
2023/11/14 03:27:44;;;;;;;;;2.67;1.00;;;;;22.39;46.19;100853.22;4957487;28;47280;-73
2023/11/14 03:30:10;;;;;;;;;3.00;1.00;;;;;22.31;45.89;100835.59;4959438;28;45227;-73
2023/11/14 03:32:36;;;;;;;;;1.00;1.00;;;;;22.37;45.90;100832.22;4959556;28;45350;-73
2023/11/14 03:35:03;;;;;;;;;3.00;0.00;;;;;22.38;46.23;100841.78;4959557;28;46014;-73
2023/11/14 03:37:28;;;;;;;;;0.00;0.00;;;;;22.37;46.10;100842.00;4959164;28;46341;-73
2023/11/14 03:39:54;;;;;;;;;0.00;0.00;;;;;22.38;46.11;100844.44;4959244;28;45425;-73
2023/11/14 03:42:19;;;;;;;;;0.33;0.33;;;;;22.37;46.17;100842.81;4958715;28;51397;-73
2023/11/14 03:44:44;;;;;;;;;1.00;1.00;;;;;22.35;45.81;100825.44;4958982;28;54412;-73
2023/11/14 03:47:10;;;;;;;;;2.00;0.67;;;;;22.35;45.86;100825.44;4959080;28;46994;-73
2023/11/14 03:49:35;;;;;;;;;2.00;0.67;;;;;22.37;45.94;100849.94;4959406;28;45440;-73
2023/11/14 03:52:00;;;;;;;;;1.33;0.00;;;;;22.38;45.77;100843.63;4959020;28;48709;-73
2023/11/14 03:54:26;;;;;;;;;1.00;1.00;;;;;22.37;46.24;100844.66;4957718;28;49961;-73
2023/11/14 03:56:51;;;;;;;;;0.67;0.33;;;;;22.06;46.42;100801.41;4958580;28;45298;-73
2023/11/14 03:59:16;;;;;;;;;2.00;0.33;;;;;22.28;46.29;100846.53;4958977;28;45388;-73
2023/11/14 04:01:42;;;;;;;;;2.00;2.00;;;;;22.21;46.26;100827.91;4959059;28;45683;-73
2023/11/14 04:04:07;;;;;;;;;1.67;1.67;;;;;22.32;46.38;100820.50;4959166;28;45404;-73
2023/11/14 04:06:32;;;;;;;;;1.00;1.00;;;;;22.36;45.90;100838.50;4958857;28;45331;-73
2023/11/14 04:08:57;;;;;;;;;3.00;0.00;;;;;22.29;45.80;100846.38;4958802;28;47053;-73
2023/11/14 04:11:23;;;;;;;;;1.67;1.00;;;;;22.36;45.79;100883.56;4973642;28;45482;-74
2023/11/14 04:13:48;;;;;;;;;1.33;0.00;;;;;22.37;45.88;100884.41;4959139;28;45397;-73
2023/11/14 04:16:15;;;;;;;;;5.00;0.67;;;;;22.36;45.79;100896.00;4958743;28;46138;-73
2023/11/14 04:18:42;;;;;;;;;2.67;1.00;;;;;22.36;46.35;100885.41;4958885;28;45313;-73
2023/11/14 04:21:09;;;;;;;;;2.67;0.33;;;;;22.35;45.88;100895.16;4958813;28;45227;-73
2023/11/14 04:23:34;;;;;;;;;3.00;1.00;;;;;22.34;46.42;100887.41;4958942;28;45482;-73
2023/11/14 04:26:00;;;;;;;;;0.67;0.67;;;;;22.35;46.34;100889.06;4958064;28;47629;-73
2023/11/14 04:28:25;;;;;;;;;2.00;2.00;;;;;22.24;45.94;100869.13;4958685;28;45374;-73
2023/11/14 04:30:52;;;;;;;;;1.00;1.00;;;;;22.34;45.76;100904.16;4959021;28;45397;-73
2023/11/14 04:33:17;;;;;;;;;1.00;1.00;;;;;22.34;46.23;100904.16;4958735;28;45437;-73
2023/11/14 04:35:43;;;;;;;;;1.67;1.00;;;;;22.32;45.69;100882.31;4958411;28;45553;-73
2023/11/14 04:38:08;;;;;;;;;3.00;1.00;;;;;22.35;46.09;100900.47;4958155;28;57332;-73
2023/11/14 04:40:33;;;;;;;;;2.67;0.67;;;;;22.35;45.67;100899.66;4958143;28;46870;-73
2023/11/14 04:42:59;;;;;;;;;1.00;1.00;;;;;22.32;45.96;100882.31;4958333;28;49940;-74
2023/11/14 04:45:25;;;;;;;;;2.33;0.00;;;;;22.24;46.25;100877.06;4958438;28;46241;-73
2023/11/14 04:47:51;;;;;;;;;1.33;1.33;;;;;22.36;45.65;100874.78;4958273;28;45527;-73
2023/11/14 04:50:20;;;;;;;;;0.33;0.33;;;;;22.36;45.82;100858.88;4957203;28;45518;-73
2023/11/14 04:52:45;;;;;;;;;0.00;0.00;;;;;22.33;46.20;100843.38;4958633;28;45464;-73
2023/11/14 04:55:10;;;;;;;;;1.00;1.00;;;;;22.32;45.81;100820.50;4957717;28;47207;-73
2023/11/14 04:57:36;;;;;;;;;3.00;1.33;;;;;22.27;46.17;100797.22;4958093;28;45473;-73
2023/11/14 05:00:04;;;;;;;;;1.33;0.33;;;;;22.36;46.16;100827.91;4958114;28;45431;-73
2023/11/14 05:02:30;;;;;;;;;0.00;0.00;;;;;22.36;45.71;100829.72;4958296;28;45382;-73
2023/11/14 05:04:58;;;;;;;;;1.00;1.00;;;;;22.35;45.66;100825.44;4957951;28;47106;-74
2023/11/14 05:07:24;;;;;;;;;0.00;0.00;;;;;22.24;46.22;100827.56;4957537;28;45405;-73
2023/11/14 05:09:49;;;;;;;;;0.67;0.67;;;;;22.27;46.05;100839.63;4957883;28;45316;-73
2023/11/14 05:12:14;;;;;;;;;0.00;0.00;;;;;22.25;45.80;100845.09;4958171;28;45396;-73
2023/11/14 05:14:40;;;;;;;;;0.67;0.67;;;;;22.29;45.77;100842.91;4957884;28;46203;-73
2023/11/14 05:17:05;;;;;;;;;2.33;1.33;;;;;22.35;45.73;100862.56;4957861;28;45400;-73
2023/11/14 05:19:30;;;;;;;;;0.00;0.00;;;;;22.31;45.69;100875.34;4956822;28;45425;-73
2023/11/14 05:21:56;;;;;;;;;3.00;0.00;;;;;22.29;45.98;100886.13;4958037;28;45376;-72
2023/11/14 05:24:21;;;;;;;;;2.00;1.00;;;;;22.27;46.24;100882.03;4957531;28;45826;-74
2023/11/14 05:26:47;;;;;;;;;1.67;1.00;;;;;22.31;46.24;100898.38;4957712;28;45346;-72
2023/11/14 05:29:12;;;;;;;;;2.00;0.33;;;;;22.33;45.79;100873.31;4956572;28;45323;-73
2023/11/14 05:31:38;;;;;;;;;0.67;0.67;;;;;22.34;46.18;100882.94;4957755;28;45500;-74
2023/11/14 05:34:04;;;;;;;;;2.00;2.00;;;;;22.33;46.12;100886.59;4957495;28;46291;-72
2023/11/14 05:36:30;;;;;;;;;1.00;1.00;;;;;22.34;45.87;100869.69;4957601;28;45338;-73
2023/11/14 05:38:56;;;;;;;;;0.67;0.67;;;;;22.33;46.28;100849.47;4957290;28;45328;-73
2023/11/14 05:41:21;;;;;;;;;1.00;1.00;;;;;22.27;46.21;100827.19;4957646;28;45370;-73
2023/11/14 05:43:47;;;;;;;;;1.67;1.67;;;;;22.29;45.55;100824.34;4955985;28;46275;-73
2023/11/14 05:46:13;;;;;;;;;2.00;2.00;;;;;22.33;45.69;100808.91;4957456;28;45405;-73
2023/11/14 05:48:38;;;;;;;;;2.00;1.00;;;;;22.29;46.16;100800.50;4957367;28;45436;-73
2023/11/14 05:51:04;;;;;;;;;0.00;0.00;;;;;22.34;45.68;100794.63;4957420;28;45317;-73
2023/11/14 05:53:30;;;;;;;;;1.00;1.00;;;;;22.33;45.58;100788.50;4957063;28;45371;-73
2023/11/14 05:55:56;;;;;;;;;1.67;1.67;;;;;22.23;45.83;100769.41;4955859;28;45473;-73
2023/11/14 05:58:22;;;;;;;;;1.33;0.33;;;;;22.33;45.73;100774.47;4957190;28;45396;-73
2023/11/14 06:00:48;;;;;;;;;3.33;0.67;;;;;22.34;45.60;100799.94;4957118;28;45460;-73
2023/11/14 06:03:13;;;;;;;;;2.67;0.00;;;;;22.35;45.63;100798.94;4957119;28;46303;-73
2023/11/14 06:05:39;;;;;;;;;1.00;1.00;;;;;22.26;45.65;100782.31;4957304;28;45465;-74
2023/11/14 06:08:04;;;;;;;;;3.00;0.67;;;;;22.33;45.74;100785.06;4956692;28;45391;-73
2023/11/14 06:10:29;;;;;;;;;0.00;0.00;;;;;22.24;45.80;100776.38;4957203;28;45493;-73
2023/11/14 06:12:58;;;;;;;;;0.00;0.00;;;;;22.28;46.16;100783.75;4957155;28;47229;-73
2023/11/14 06:15:24;;;;;;;;;0.00;0.00;;;;;22.21;45.88;100756.34;4957113;28;45491;-73
2023/11/14 06:17:49;;;;;;;;;2.67;1.00;;;;;22.35;46.06;100806.91;4956183;28;45350;-73
2023/11/14 06:20:15;;;;;;;;;0.67;0.67;;;;;22.34;45.56;100813.19;4956924;28;45322;-74
2023/11/14 06:22:41;;;;;;;;;0.00;0.00;;;;;22.24;45.63;100802.88;4956523;28;46906;-74
2023/11/14 06:25:07;;;;;;;;;0.00;0.00;;;;;22.35;46.18;100817.50;4956880;28;45505;-73
2023/11/14 06:27:33;;;;;;;;;0.00;0.00;;;;;22.26;46.18;100796.38;4956934;28;45281;-73
2023/11/14 06:29:58;;;;;;;;;0.00;0.00;;;;;22.18;45.98;100807.06;4956794;28;45351;-74
2023/11/14 06:32:24;;;;;;;;;1.67;0.33;;;;;22.23;45.74;100812.66;4956369;28;56627;-74
2023/11/14 06:34:50;;;;;;;;;5.00;1.00;;;;;22.26;45.73;100822.88;4956889;28;45344;-73
2023/11/14 06:37:16;;;;;;;;;1.00;1.00;;;;;22.34;45.96;100827.28;4956359;28;45347;-74
2023/11/14 06:39:41;;;;;;;;;0.33;0.33;;;;;22.31;45.70;100795.00;4956940;28;45458;-73
2023/11/14 06:42:07;;;;;;;;;3.00;1.00;;;;;22.33;45.69;100793.81;4956466;28;46456;-73
2023/11/14 06:44:35;;;;;;;;;1.67;1.00;;;;;22.35;46.04;100809.56;4956619;28;45783;-72
2023/11/14 06:47:01;;;;;;;;;0.67;0.33;;;;;22.22;46.15;100804.88;4956751;28;45342;-73
2023/11/14 06:49:27;;;;;;;;;2.00;0.00;;;;;22.24;46.14;100800.22;4955495;28;45727;-73
2023/11/14 06:51:52;;;;;;;;;0.67;0.67;;;;;22.36;46.16;100817.31;4956035;28;46512;-73
2023/11/14 06:54:17;;;;;;;;;1.00;1.00;;;;;22.32;46.29;100801.97;4956705;28;45402;-72
2023/11/14 06:56:43;;;;;;;;;2.00;1.00;;;;;22.27;46.37;100779.50;4956496;28;45370;-72
2023/11/14 06:59:09;;;;;;;;;1.00;1.00;;;;;22.35;46.26;100752.03;4956212;28;45365;-72
2023/11/14 07:01:35;;;;;;;;;3.00;1.00;;;;;22.36;46.65;100766.94;4956363;28;46349;-74
2023/11/14 07:04:02;;;;;;;;;2.00;2.00;;;;;22.37;46.12;100787.16;4955981;28;45291;-72
2023/11/14 07:06:28;;;;;;;;;2.67;1.00;;;;;22.35;46.37;100778.53;4956353;28;45457;-72
2023/11/14 07:08:54;;;;;;;;;2.00;0.33;;;;;22.26;46.81;100748.69;4956256;28;45327;-72
2023/11/14 07:11:20;;;;;;;;;2.00;0.00;;;;;22.23;46.07;100761.47;4956173;28;46344;-74
2023/11/14 07:13:45;;;;;;;;;3.00;0.00;;;;;22.33;46.51;100800.97;4956295;28;45456;-72
2023/11/14 07:16:10;;;;;;;;;2.00;0.33;;;;;22.35;46.81;100838.72;4956290;28;45298;-72
2023/11/14 07:18:37;;;;;;;;;3.00;2.00;;;;;22.32;46.66;100809.91;4955978;28;45278;-74
2023/11/14 07:21:03;;;;;;;;;0.67;0.67;;;;;22.28;46.86;100773.16;4956086;28;46247;-72
2023/11/14 07:23:29;;;;;;;;;2.00;1.00;;;;;22.28;47.06;100757.25;4956128;28;45295;-72
2023/11/14 07:25:54;;;;;;;;;1.00;1.00;;;;;21.64;46.95;100653.50;4956175;28;45274;-75
2023/11/14 07:28:19;;;;;;;;;2.00;1.00;;;;;22.34;46.81;100757.53;4956352;28;45389;-76
2023/11/14 07:30:45;;;;;;;;;1.33;0.00;;;;;22.39;47.22;100760.44;4959540;28;46083;-75
2023/11/14 07:33:11;;;;;;;;;4.33;2.00;;;;;22.32;46.73;100741.81;4958936;28;45890;-74
2023/11/14 07:35:39;;;;;;;;;4.00;1.00;;;;;22.36;47.09;100782.03;4959414;28;45365;-74
2023/11/14 07:38:05;;;;;;;;;2.00;0.33;;;;;22.33;47.00;100803.63;4959427;28;45432;-75
2023/11/14 07:40:32;;;;;;;;;2.00;2.00;;;;;22.37;47.28;100802.22;4959131;28;46110;-75
2023/11/14 07:43:00;;;;;;;;;1.00;0.00;;;;;22.32;46.79;100783.41;4959306;28;45322;-76
2023/11/14 07:45:25;;;;;;;;;1.00;0.67;;;;;22.29;47.02;100764.22;4959272;28;45317;-75
2023/11/14 07:47:51;;;;;;;;;4.67;1.00;;;;;22.35;47.07;100764.50;4958870;28;45239;-76
2023/11/14 07:50:16;;;;;;;;;2.67;1.00;;;;;22.33;47.14;100763.84;4959231;28;46082;-73
2023/11/14 07:52:42;;;;;;;;;1.33;1.00;;;;;22.25;46.62;100772.72;4959095;28;45440;-74
2023/11/14 07:55:10;;;;;;;;;4.00;1.00;;;;;22.22;47.22;100783.69;4959261;28;45299;-76
2023/11/14 07:57:36;;;;;;;;;1.00;1.00;;;;;22.28;46.97;100790.88;4958967;28;45511;-74
2023/11/14 08:00:02;;;;;;;;;5.67;2.00;;;;;22.39;46.62;100787.78;4958594;28;46146;-75
2023/11/14 08:02:30;;;;;;;;;1.00;0.00;;;;;22.29;47.23;100787.25;4958708;28;45331;-75
2023/11/14 08:04:55;;;;;;;;;2.00;1.00;;;;;22.39;47.04;100813.47;4959036;28;45662;-76
2023/11/14 08:07:20;;;;;;;;;4.00;1.33;;;;;22.28;47.27;100782.94;4959055;28;45416;-75
2023/11/14 08:09:47;;;;;;;;;2.67;0.00;;;;;22.37;47.00;100795.09;4958725;28;45995;-75
2023/11/14 08:12:12;;;;;;;;;1.33;0.33;;;;;22.39;47.15;100784.31;4958972;28;45422;-74
2023/11/14 08:14:39;;;;;;;;;0.00;0.00;;;;;22.38;46.62;100783.47;4958950;28;45894;-74
2023/11/14 08:17:04;;;;;;;;;2.00;0.33;;;;;22.24;46.92;100752.53;4958549;28;45440;-75
2023/11/14 08:19:29;;;;;;;;;1.00;0.67;;;;;22.34;46.76;100754.88;4958647;28;46463;-76
2023/11/14 08:21:56;;;;;;;;;2.00;1.00;;;;;22.31;47.13;100729.56;4958620;28;45630;-76
2023/11/14 08:24:23;;;;;;;;;1.67;0.67;;;;;22.32;47.28;100731.22;4958927;28;45425;-76
2023/11/14 08:26:49;;;;;;;;;2.67;1.00;;;;;22.27;46.98;100701.81;4958545;28;45452;-75
2023/11/14 08:29:14;;;;;;;;;3.00;0.00;;;;;22.24;46.82;100720.72;4958451;28;46230;-75
2023/11/14 08:31:40;;;;;;;;;1.33;1.33;;;;;22.38;46.63;100745.53;4958386;28;45377;-75
2023/11/14 08:34:05;;;;;;;;;0.00;0.00;;;;;22.28;46.76;100720.16;4958611;28;45326;-75
2023/11/14 08:36:31;;;;;;;;;3.67;1.00;;;;;22.25;46.84;100712.56;4958648;28;45384;-75
2023/11/14 08:38:56;;;;;;;;;1.67;1.00;;;;;22.34;47.12;100729.19;4958492;28;45222;-75
2023/11/14 08:41:22;;;;;;;;;1.00;1.00;;;;;22.29;46.79;100726.28;4957761;28;45386;-75
2023/11/14 08:43:47;;;;;;;;;1.00;0.00;;;;;22.26;47.02;100716.03;4958533;28;45469;-75
2023/11/14 08:46:12;;;;;;;;;1.00;1.00;;;;;22.38;47.24;100721.69;4958259;28;45343;-75
2023/11/14 08:48:38;;;;;;;;;1.67;1.00;;;;;22.37;46.64;100698.84;4958381;28;45486;-74
2023/11/14 08:51:03;;;;;;;;;1.00;1.00;;;;;22.22;46.51;100673.22;4958346;28;45401;-75
2023/11/14 08:53:29;;;;;;;;;0.00;0.00;;;;;22.37;46.72;100704.16;4958691;28;45396;-75
2023/11/14 08:55:55;;;;;;;;;2.67;0.00;;;;;22.29;47.04;100702.44;4958362;28;45349;-75
2023/11/14 08:58:20;;;;;;;;;6.33;1.00;;;;;22.34;47.13;100723.06;4957958;28;46807;-76
2023/11/14 09:00:47;;;;;;;;;2.00;1.67;;;;;21.92;46.57;100652.03;4957661;28;45488;-75
2023/11/14 09:03:12;;;;;;;;;0.67;0.67;;;;;22.35;47.10;100720.22;4958285;28;45346;-75
2023/11/14 09:05:40;;;;;;;;;1.00;1.00;;;;;22.26;46.54;100708.09;4958050;28;45574;-75
2023/11/14 09:08:05;;;;;;;;;0.00;0.00;;;;;22.15;46.94;100678.41;4957950;28;46421;-76
2023/11/14 09:10:30;;;;;;;;;0.67;0.67;;;;;22.25;46.89;100691.38;4958031;28;45639;-76
2023/11/14 09:12:56;;;;;;;;;4.67;2.00;;;;;22.31;47.16;100695.09;4958269;28;45452;-76
2023/11/14 09:15:22;;;;;;;;;0.67;0.00;;;;;22.38;46.66;100713.72;4957918;28;45602;-75
2023/11/14 09:17:48;;;;;;;;;3.00;1.00;;;;;22.33;47.16;100706.34;4957816;28;45613;-74
2023/11/14 09:20:14;;;;;;;;;3.67;1.00;;;;;22.39;47.15;100720.69;4957925;28;45504;-76
2023/11/14 09:22:39;;;;;;;;;1.00;1.00;;;;;22.21;47.06;100689.28;4957846;28;45410;-76
2023/11/14 09:25:06;;;;;;;;;0.33;0.33;;;;;22.38;46.71;100700.47;4957912;28;45607;-74
2023/11/14 09:27:31;;;;;;;;;0.00;0.00;;;;;22.38;46.81;100701.31;4957631;28;46272;-75
2023/11/14 09:29:57;;;;;;;;;3.00;1.00;;;;;22.31;46.82;100703.06;4957223;28;45375;-75
2023/11/14 09:32:23;;;;;;;;;1.00;1.00;;;;;22.35;47.26;100711.47;4957976;28;45362;-75
2023/11/14 09:34:49;;;;;;;;;2.33;0.67;;;;;22.29;47.25;100702.44;4957707;28;45227;-75
2023/11/14 09:37:15;;;;;;;;;2.67;1.00;;;;;22.35;47.34;100709.63;4957462;28;46307;-75
2023/11/14 09:39:40;;;;;;;;;2.00;1.00;;;;;22.32;46.65;100701.25;4957464;28;45271;-75
2023/11/14 09:42:06;;;;;;;;;1.67;1.67;;;;;22.24;47.21;100689.75;4972657;28;45329;-75
2023/11/14 09:44:31;;;;;;;;;1.00;1.00;;;;;22.37;46.73;100712.94;4957337;28;45389;-75
2023/11/14 09:46:59;;;;;;;;;1.33;0.33;;;;;22.25;46.64;100682.63;4957018;28;53067;-75
2023/11/14 09:49:25;;;;;;;;;0.67;0.67;;;;;22.37;47.27;100704.16;4957518;28;45449;-76
2023/11/14 09:51:51;;;;;;;;;0.67;0.67;;;;;22.33;46.79;100685.13;4957525;28;45315;-75
2023/11/14 09:54:17;;;;;;;;;1.67;1.00;;;;;22.23;46.95;100684.59;4957495;28;45769;-76
2023/11/14 09:56:50;;;;;;;;;2.00;1.00;;;;;22.37;46.65;100704.16;4957295;28;46292;-75
2023/11/14 09:59:18;;;;;;;;;1.50;1.50;;;;;22.24;46.89;100675.66;4956724;28;45501;-76
2023/11/14 10:01:44;;;;;;;;;0.33;0.00;;;;;22.38;46.98;100689.88;4957201;28;45366;-76
2023/11/14 10:04:10;;;;;;;;;0.00;0.00;;;;;22.34;46.63;100678.00;4957235;28;45444;-76
2023/11/14 10:06:42;;;;;;;;;2.00;1.00;;;;;22.28;47.11;100680.41;4957010;28;46211;-75
2023/11/14 10:09:16;;;;;;;;;0.00;0.00;;;;;22.38;47.09;100689.88;4956995;28;45405;-75
2023/11/14 10:11:45;;;;;;;;;0.67;0.67;;;;;22.34;47.19;100686.78;4957218;28;45351;-75
2023/11/14 10:14:11;;;;;;;;;1.33;1.00;;;;;22.29;47.42;100675.94;4956874;28;45567;-76
2023/11/14 10:16:36;;;;;;;;;0.67;0.00;;;;;22.07;46.96;100633.47;4956851;28;46423;-75
2023/11/14 10:19:10;;;;;;;;;5.00;1.00;;;;;22.37;46.95;100685.59;4956932;28;45287;-75
2023/11/14 10:21:36;;;;;;;;;2.33;1.00;;;;;22.36;46.95;100676.81;4957120;28;45274;-76
2023/11/14 10:24:11;;;;;;;;;2.33;1.00;;;;;22.35;46.72;100677.03;4957065;28;45393;-76
2023/11/14 10:26:52;;;;;;;;;1.00;0.00;;;;;22.23;47.27;100658.94;4956699;28;46975;-75
2023/11/14 10:29:22;;;;;;;;;1.00;0.00;;;;;22.37;47.36;100670.53;4956598;28;45505;-75
2023/11/14 10:31:50;;;;;;;;;1.33;1.33;;;;;22.34;47.38;100657.63;4956763;28;45396;-76
2023/11/14 10:34:28;;;;;;;;;3.00;2.00;;;;;22.04;46.94;100616.13;4956839;28;45542;-76
2023/11/14 10:36:55;;;;;;;;;0.67;0.33;;;;;22.37;47.14;100657.28;4956664;28;45444;-75
2023/11/14 10:39:22;;;;;;;;;3.00;0.00;;;;;22.37;46.63;100657.28;4956781;28;45356;-75
2023/11/14 10:41:49;;;;;;;;;3.67;0.00;;;;;22.28;47.26;100650.41;4956490;28;45327;-75
2023/11/14 10:44:15;;;;;;;;;2.00;1.00;;;;;22.33;46.81;100649.88;4956692;28;45504;-75
2023/11/14 10:47:07;;;;;;;;;1.00;1.00;;;;;22.36;46.72;100655.63;4956351;28;46064;-75
2023/11/14 10:49:45;;;;;;;;;1.33;1.00;;;;;22.15;46.64;100617.47;4958804;28;45642;-75
2023/11/14 10:52:11;;;;;;;;;1.00;1.00;;;;;22.37;46.93;100659.91;4955449;28;45384;-75
2023/11/14 10:54:37;;;;;;;;;1.00;1.00;;;;;22.09;46.82;100609.47;4956647;28;45477;-75
2023/11/14 10:57:04;;;;;;;;;1.00;0.00;;;;;22.38;47.39;100650.13;4955940;28;46186;-76
2023/11/14 10:59:31;;;;;;;;;3.67;1.00;;;;;22.39;46.92;100646.47;4956385;28;45265;-75
2023/11/14 11:01:58;;;;;;;;;1.33;1.00;;;;;22.29;46.94;100625.56;4956435;28;45472;-75
2023/11/14 11:04:23;;;;;;;;;0.00;0.00;;;;;22.29;47.10;100617.63;4958238;28;45461;-75
2023/11/14 11:06:48;;;;;;;;;1.00;1.00;;;;;22.38;46.94;100634.22;4959583;28;46232;-74
2023/11/14 11:09:15;;;;;;;;;2.33;0.67;;;;;22.32;46.59;100611.94;4959824;28;45457;-76
2023/11/14 11:11:45;;;;;;;;;3.00;0.00;;;;;22.38;47.09;100611.19;4959657;28;45360;-75
2023/11/14 11:14:14;;;;;;;;;2.00;1.00;;;;;22.35;46.96;100603.59;4959831;28;45410;-75
2023/11/14 11:16:41;;;;;;;;;1.00;0.00;;;;;22.38;46.69;100605.88;4959485;28;47152;-75
2023/11/14 11:19:07;;;;;;;;;1.00;1.00;;;;;22.34;46.56;100593.19;4959590;28;45368;-75